Terminal Aerodrome Forecast
Issued by NWS

Home | Current Version | Previous Version | Text Only | Print | Product List | Glossary On
Versions: 1 2 3 4 5 6 7 8 9 10 11 12 13 14 15 16 17 18 19 20 21 22 23 24 25 26
000
FTUS43 KDLH 271100
TAFHYR
TAF
KHYR 271121Z 2712/2812 35003KT 2SM -SN BR OVC016
      TEMPO 2712/2714 3/4SM -SN BR VV012
     FM271400 36005KT 5SM -SN BR OVC018
     FM271900 31005KT P6SM OVC022
     FM272300 25003KT P6SM BKN035
     FM280900 VRB02KT P6SM OVC025=

USA.gov is the U.S. government's official web portal to all federal, state and local government web resources and services.